createdAt,value
2023-04-05T00:00:27.920Z,66.24
2023-04-05T00:05:30.051Z,66.58
2023-04-05T00:10:22.945Z,66.52
2023-04-05T00:15:16.252Z,66.64
2023-04-05T00:20:11.291Z,66.90
2023-04-05T00:25:04.696Z,67.26
2023-04-05T00:29:57.516Z,66.88
2023-04-05T00:34:52.141Z,67.32
2023-04-05T00:39:45.303Z,67.31
2023-04-05T00:44:38.370Z,67.31
2023-04-05T00:49:32.158Z,67.48
2023-04-05T00:54:28.642Z,67.58
2023-04-05T00:59:21.564Z,67.73
2023-04-05T01:04:21.819Z,67.92
2023-04-05T01:09:36.783Z,68.16
2023-04-05T01:14:30.279Z,67.94
2023-04-05T01:19:23.260Z,67.45
2023-04-05T01:24:46.985Z,67.66
2023-04-05T01:29:52.761Z,67.84
2023-04-05T01:34:48.321Z,68.21
2023-04-05T01:39:41.817Z,68.02
2023-04-05T01:44:34.639Z,67.67
2023-04-05T01:49:27.653Z,68.03
2023-04-05T01:54:20.487Z,68.12
2023-04-05T01:59:13.417Z,68.24
2023-04-05T02:04:06.228Z,68.18
2023-04-05T02:08:59.734Z,67.99
2023-04-05T02:13:52.526Z,67.78
2023-04-05T02:18:50.985Z,68.02
2023-04-05T02:23:44.044Z,67.99
2023-04-05T02:28:37.204Z,68.26
2023-04-05T02:33:30.017Z,68.38
2023-04-05T02:38:22.860Z,68.23
2023-04-05T02:43:15.646Z,68.18
2023-04-05T02:48:08.662Z,68.34
2023-04-05T02:53:01.567Z,68.70
2023-04-05T02:58:01.158Z,68.91
2023-04-05T03:02:59.160Z,68.61
2023-04-05T03:07:52.887Z,68.15
2023-04-05T03:12:48.605Z,68.57
2023-04-05T03:17:44.332Z,68.48
2023-04-05T03:22:37.808Z,68.55
2023-04-05T03:27:32.086Z,68.34
2023-04-05T03:32:31.793Z,68.34
2023-04-05T03:37:30.243Z,68.22
2023-04-05T03:42:28.492Z,68.31
2023-04-05T03:47:22.854Z,68.25
2023-04-05T03:52:16.534Z,68.10
2023-04-05T03:57:10.726Z,68.09
2023-04-05T04:02:04.573Z,68.35
2023-04-05T04:06:58.271Z,68.84
2023-04-05T04:11:52.976Z,68.67
2023-04-05T04:16:47.662Z,68.71
2023-04-05T04:22:10.317Z,68.89
2023-04-05T04:27:23.563Z,69.20
2023-04-05T04:32:52.108Z,69.36
2023-04-05T04:38:08.566Z,69.58
2023-04-05T04:43:18.298Z,69.74
2023-04-05T04:48:28.468Z,69.79
2023-04-05T04:53:37.210Z,69.90
2023-04-05T04:58:30.288Z,69.93
2023-04-05T05:03:32.332Z,69.84
2023-04-05T05:08:25.294Z,70.05
2023-04-05T05:13:18.071Z,70.08
2023-04-05T05:18:12.469Z,70.31
2023-04-05T05:23:05.590Z,70.08
2023-04-05T05:27:58.563Z,70.29
2023-04-05T05:32:53.023Z,70.33
2023-04-05T05:37:45.918Z,70.29
2023-04-05T05:42:38.802Z,70.30
2023-04-05T05:47:31.606Z,70.39
2023-04-05T05:52:24.734Z,70.48
2023-04-05T05:57:17.807Z,70.28
2023-04-05T06:02:12.101Z,70.24
2023-04-05T06:07:05.011Z,70.31
2023-04-05T06:11:58.575Z,70.26
2023-04-05T06:16:51.388Z,70.02
2023-04-05T06:21:44.160Z,70.06
2023-04-05T06:26:36.996Z,69.69
2023-04-05T06:31:35.799Z,69.69
2023-04-05T06:36:31.720Z,69.44
2023-04-05T06:41:24.749Z,69.21
2023-04-05T06:46:17.592Z,69.33
2023-04-05T06:51:10.566Z,68.96
2023-04-05T06:56:04.040Z,68.72
2023-04-05T07:00:56.877Z,68.38
2023-04-05T07:05:55.102Z,67.64
2023-04-05T07:10:49.521Z,67.43
2023-04-05T07:15:42.518Z,66.97
2023-04-05T07:20:35.326Z,66.44
2023-04-05T07:25:28.221Z,65.48
2023-04-05T07:30:22.193Z,65.41
2023-04-05T07:35:15.472Z,65.18
2023-04-05T07:40:11.163Z,64.99
2023-04-05T07:45:04.417Z,64.88
2023-04-05T07:49:59.535Z,64.91
2023-04-05T07:54:52.352Z,64.46
2023-04-05T07:59:45.704Z,63.61
2023-04-05T08:04:38.588Z,63.85
2023-04-05T08:09:31.370Z,62.46
2023-04-05T08:14:24.720Z,62.00
2023-04-05T08:19:18.035Z,61.59
2023-04-05T08:24:11.036Z,60.65
2023-04-05T08:29:03.830Z,60.91
2023-04-05T08:33:56.646Z,60.60
2023-04-05T08:38:49.426Z,59.82
2023-04-05T08:43:53.047Z,59.19
2023-04-05T08:48:46.597Z,59.28
2023-04-05T08:53:40.016Z,59.57
2023-04-05T08:58:35.591Z,59.58
2023-04-05T09:03:36.568Z,59.49
2023-04-05T09:08:29.754Z,59.54
2023-04-05T09:13:22.997Z,59.79
2023-04-05T09:18:26.778Z,59.94
2023-04-05T09:23:22.159Z,60.28
2023-04-05T09:28:15.067Z,60.46
2023-04-05T09:33:11.012Z,60.63
2023-04-05T09:38:06.276Z,60.73
2023-04-05T09:43:01.584Z,60.35
2023-04-05T09:47:58.786Z,60.66
2023-04-05T09:52:52.642Z,60.67
2023-04-05T09:57:46.942Z,60.55
2023-04-05T10:02:41.412Z,60.34
2023-04-05T10:07:35.905Z,60.07
2023-04-05T10:12:29.586Z,59.73
2023-04-05T10:17:29.552Z,59.64
2023-04-05T10:22:31.338Z,59.34
2023-04-05T10:27:54.839Z,59.20
2023-04-05T10:33:09.502Z,58.66
2023-04-05T10:38:13.308Z,58.59
2023-04-05T10:43:15.371Z,58.03
2023-04-05T10:48:31.499Z,57.74
2023-04-05T10:53:26.810Z,57.42
2023-04-05T10:58:20.729Z,57.37
2023-04-05T11:03:45.716Z,56.40
2023-04-05T11:08:44.259Z,56.85
2023-04-05T11:13:57.380Z,56.27
2023-04-05T11:18:54.234Z,55.25
2023-04-05T11:24:02.602Z,54.83
2023-04-05T11:28:59.353Z,54.24
2023-04-05T11:33:57.693Z,53.36
2023-04-05T11:39:20.370Z,54.13
2023-04-05T11:44:17.391Z,53.98
2023-04-05T11:49:11.032Z,53.65
2023-04-05T11:54:03.929Z,53.94
2023-04-05T11:59:00.472Z,53.85
2023-04-05T12:03:57.886Z,53.91
2023-04-05T12:08:51.467Z,53.54
2023-04-05T12:13:46.704Z,53.89
2023-04-05T12:18:39.946Z,53.74
2023-04-05T12:23:33.423Z,53.67
2023-04-05T12:28:27.018Z,53.55
2023-04-05T12:33:35.622Z,53.42
2023-04-05T12:38:28.842Z,53.16
2023-04-05T12:43:22.000Z,53.46
2023-04-05T12:48:16.310Z,53.49
2023-04-05T12:53:09.130Z,53.83
2023-04-05T12:58:03.844Z,53.91
2023-04-05T13:02:58.673Z,53.73
2023-04-05T13:07:52.053Z,53.29
2023-04-05T13:12:45.035Z,52.87
2023-04-05T13:17:38.228Z,52.64
2023-04-05T13:22:51.348Z,52.52
2023-04-05T13:27:46.976Z,51.98
2023-04-05T13:32:39.839Z,51.65
2023-04-05T13:37:33.105Z,52.04
2023-04-05T13:42:26.156Z,50.98
2023-04-05T13:47:20.162Z,50.80
2023-04-05T13:52:13.631Z,51.41
2023-04-05T13:57:06.535Z,52.02
2023-04-05T14:01:59.384Z,51.69
2023-04-05T14:06:52.270Z,51.99
2023-04-05T14:11:45.377Z,51.52
2023-04-05T14:16:38.277Z,51.23
2023-04-05T14:21:31.971Z,51.70
2023-04-05T14:26:26.883Z,51.29
2023-04-05T14:31:19.774Z,50.94
2023-04-05T14:36:12.695Z,50.86
2023-04-05T14:41:08.779Z,50.93
2023-04-05T14:46:02.448Z,51.07
2023-04-05T14:50:55.556Z,50.65
2023-04-05T14:55:48.443Z,50.85
2023-04-05T15:00:41.450Z,51.14
2023-04-05T15:05:34.541Z,51.57
2023-04-05T15:10:27.565Z,52.00
2023-04-05T15:15:20.430Z,52.19
2023-04-05T15:20:15.093Z,51.39
2023-04-05T15:25:11.674Z,51.52
2023-04-05T15:30:04.760Z,51.13
2023-04-05T15:34:58.120Z,51.36
2023-04-05T15:39:50.897Z,51.23
2023-04-05T15:44:44.137Z,51.41
2023-04-05T15:49:36.901Z,51.77
2023-04-05T15:54:29.827Z,51.47
2023-04-05T15:59:22.751Z,51.67
2023-04-05T16:04:15.933Z,52.05
2023-04-05T16:09:08.939Z,52.23
2023-04-05T16:14:02.023Z,52.28
2023-04-05T16:18:54.958Z,52.18
2023-04-05T16:23:47.956Z,52.17
2023-04-05T16:28:42.670Z,52.54
2023-04-05T16:33:35.606Z,52.75
2023-04-05T16:38:28.436Z,53.07
2023-04-05T16:43:21.288Z,53.16
2023-04-05T16:48:15.241Z,53.87
2023-04-05T16:53:08.086Z,53.96
2023-04-05T16:58:01.198Z,53.45
2023-04-05T17:02:54.729Z,53.64
2023-04-05T17:07:47.978Z,54.82
2023-04-05T17:12:42.300Z,54.03
2023-04-05T17:17:37.292Z,53.61
2023-04-05T17:22:31.665Z,54.20
2023-04-05T17:27:26.017Z,54.79
2023-04-05T17:32:19.044Z,54.54
2023-04-05T17:37:11.875Z,53.91
2023-04-05T17:42:04.732Z,53.57
2023-04-05T17:47:08.639Z,53.78
2023-04-05T17:52:02.591Z,53.93
2023-04-05T17:56:56.565Z,54.07
2023-04-05T18:01:53.845Z,54.40
2023-04-05T18:06:46.860Z,55.47
2023-04-05T18:11:41.252Z,56.03
2023-04-05T18:16:34.742Z,56.44
2023-04-05T18:21:31.329Z,56.91
2023-04-05T18:26:24.742Z,56.91
2023-04-05T18:31:17.805Z,57.34
2023-04-05T18:36:12.821Z,57.39
2023-04-05T18:41:07.305Z,57.20
2023-04-05T18:46:00.176Z,57.48
2023-04-05T18:50:54.179Z,57.59
2023-04-05T18:55:47.166Z,57.85
2023-04-05T19:00:39.932Z,57.63
2023-04-05T19:05:33.140Z,57.42
2023-04-05T19:10:45.318Z,57.16
2023-04-05T19:15:42.673Z,56.91
2023-04-05T19:20:35.564Z,56.88
2023-04-05T19:25:31.003Z,57.54
2023-04-05T19:30:24.032Z,57.16
2023-04-05T19:35:17.162Z,56.78
2023-04-05T19:40:12.365Z,56.59
2023-04-05T19:45:09.395Z,57.93
2023-04-05T19:50:02.236Z,58.06
2023-04-05T19:54:55.397Z,58.30
2023-04-05T19:59:48.552Z,58.79
2023-04-05T20:04:43.474Z,58.86
2023-04-05T20:09:41.201Z,58.98
2023-04-05T20:14:45.989Z,59.38
2023-04-05T20:19:41.606Z,58.86
2023-04-05T20:24:34.755Z,58.36
2023-04-05T20:29:32.370Z,58.08
2023-04-05T20:34:25.100Z,58.95
2023-04-05T20:39:20.317Z,59.25
2023-04-05T20:44:13.376Z,59.40
2023-04-05T20:49:06.992Z,59.41
2023-04-05T20:54:00.183Z,59.12
2023-04-05T20:58:54.692Z,59.07
2023-04-05T21:03:47.719Z,59.16
2023-04-05T21:08:41.752Z,59.00
2023-04-05T21:13:36.001Z,59.05
2023-04-05T21:18:28.794Z,59.14
2023-04-05T21:23:27.068Z,59.59
2023-04-05T21:28:20.093Z,59.74
2023-04-05T21:33:13.677Z,60.06
2023-04-05T21:38:07.251Z,60.03
2023-04-05T21:43:22.980Z,60.20
2023-04-05T21:48:26.682Z,60.68
2023-04-05T21:53:27.888Z,60.54
2023-04-05T22:05:25.704Z,60.89
2023-04-05T22:10:59.505Z,61.45
2023-04-05T22:16:16.329Z,61.08
2023-04-05T22:21:26.718Z,61.13
2023-04-05T22:26:23.762Z,61.29
2023-04-05T22:31:17.809Z,61.24
2023-04-05T22:36:29.118Z,61.50
2023-04-05T22:41:22.139Z,61.76
2023-04-05T22:46:18.556Z,61.84
2023-04-05T22:51:36.205Z,62.36
2023-04-05T22:56:37.421Z,62.33
2023-04-05T23:02:02.675Z,62.47
2023-04-05T23:07:18.341Z,62.99
2023-04-05T23:12:12.720Z,62.75
2023-04-05T23:17:05.577Z,62.23
2023-04-05T23:21:59.997Z,62.44
2023-04-05T23:26:53.128Z,62.37
2023-04-05T23:31:48.233Z,62.28
2023-04-05T23:36:41.454Z,61.91
2023-04-05T23:41:34.257Z,62.08
2023-04-05T23:46:27.198Z,62.04
2023-04-05T23:51:20.337Z,61.73
2023-04-05T23:56:17.949Z,61.66
